sensor_id;sensor_type;location;lat;lon;timestamp;P1;durP1;ratioP1;P2;durP2;ratioP2
42282;SDS011;28237;47.954;21.730;2022-07-03T00:02:23;8.63;;;7.80;;
42282;SDS011;28237;47.954;21.730;2022-07-03T00:04:48;8.83;;;7.57;;
42282;SDS011;28237;47.954;21.730;2022-07-03T00:07:13;9.40;;;8.57;;
42282;SDS011;28237;47.954;21.730;2022-07-03T00:09:38;8.63;;;7.60;;
42282;SDS011;28237;47.954;21.730;2022-07-03T00:12:04;9.13;;;8.13;;
42282;SDS011;28237;47.954;21.730;2022-07-03T00:14:29;8.38;;;7.65;;
42282;SDS011;28237;47.954;21.730;2022-07-03T00:16:55;8.93;;;8.07;;
42282;SDS011;28237;47.954;21.730;2022-07-03T00:19:20;8.43;;;7.73;;
42282;SDS011;28237;47.954;21.730;2022-07-03T00:21:46;8.33;;;7.53;;
42282;SDS011;28237;47.954;21.730;2022-07-03T00:24:23;10.38;;;8.25;;
42282;SDS011;28237;47.954;21.730;2022-07-03T00:26:49;8.85;;;7.97;;
42282;SDS011;28237;47.954;21.730;2022-07-03T00:29:15;8.98;;;7.97;;
42282;SDS011;28237;47.954;21.730;2022-07-03T00:31:42;9.52;;;8.63;;
42282;SDS011;28237;47.954;21.730;2022-07-03T00:34:07;10.40;;;8.57;;
42282;SDS011;28237;47.954;21.730;2022-07-03T00:36:34;10.75;;;9.00;;
42282;SDS011;28237;47.954;21.730;2022-07-03T00:39:00;11.00;;;7.68;;
42282;SDS011;28237;47.954;21.730;2022-07-03T00:41:26;8.63;;;7.93;;
42282;SDS011;28237;47.954;21.730;2022-07-03T00:43:52;8.38;;;7.50;;
42282;SDS011;28237;47.954;21.730;2022-07-03T00:46:18;7.90;;;7.20;;
42282;SDS011;28237;47.954;21.730;2022-07-03T00:48:45;8.35;;;7.55;;
42282;SDS011;28237;47.954;21.730;2022-07-03T00:51:11;7.72;;;6.95;;
42282;SDS011;28237;47.954;21.730;2022-07-03T00:53:40;8.63;;;7.82;;
42282;SDS011;28237;47.954;21.730;2022-07-03T00:56:06;8.35;;;7.55;;
42282;SDS011;28237;47.954;21.730;2022-07-03T00:58:33;7.85;;;7.15;;
42282;SDS011;28237;47.954;21.730;2022-07-03T01:01:01;8.20;;;7.40;;
42282;SDS011;28237;47.954;21.730;2022-07-03T01:03:27;8.57;;;7.78;;
42282;SDS011;28237;47.954;21.730;2022-07-03T01:05:53;8.23;;;7.45;;
42282;SDS011;28237;47.954;21.730;2022-07-03T01:10:59;7.70;;;7.03;;
42282;SDS011;28237;47.954;21.730;2022-07-03T01:13:37;8.02;;;7.22;;
42282;SDS011;28237;47.954;21.730;2022-07-03T01:16:12;8.13;;;7.18;;
42282;SDS011;28237;47.954;21.730;2022-07-03T01:18:45;8.57;;;7.10;;
42282;SDS011;28237;47.954;21.730;2022-07-03T01:26:13;6.50;;;6.00;;
42282;SDS011;28237;47.954;21.730;2022-07-03T01:28:40;8.23;;;7.43;;
42282;SDS011;28237;47.954;21.730;2022-07-03T01:31:08;7.93;;;7.05;;
42282;SDS011;28237;47.954;21.730;2022-07-03T01:33:35;10.02;;;7.35;;
42282;SDS011;28237;47.954;21.730;2022-07-03T01:38:29;7.60;;;6.80;;
42282;SDS011;28237;47.954;21.730;2022-07-03T01:40:55;7.03;;;6.45;;
42282;SDS011;28237;47.954;21.730;2022-07-03T01:43:21;7.07;;;6.38;;
42282;SDS011;28237;47.954;21.730;2022-07-03T01:45:50;7.20;;;6.50;;
42282;SDS011;28237;47.954;21.730;2022-07-03T01:48:15;6.97;;;6.37;;
42282;SDS011;28237;47.954;21.730;2022-07-03T01:50:41;6.90;;;6.35;;
42282;SDS011;28237;47.954;21.730;2022-07-03T01:53:08;8.00;;;7.20;;
42282;SDS011;28237;47.954;21.730;2022-07-03T01:55:33;7.05;;;6.35;;
42282;SDS011;28237;47.954;21.730;2022-07-03T01:57:59;7.70;;;7.00;;
42282;SDS011;28237;47.954;21.730;2022-07-03T02:00:25;7.20;;;6.60;;
42282;SDS011;28237;47.954;21.730;2022-07-03T02:02:56;9.48;;;6.95;;
42282;SDS011;28237;47.954;21.730;2022-07-03T02:10:40;6.85;;;6.30;;
42282;SDS011;28237;47.954;21.730;2022-07-03T02:13:18;6.20;;;5.57;;
42282;SDS011;28237;47.954;21.730;2022-07-03T02:15:44;9.52;;;7.15;;
42282;SDS011;28237;47.954;21.730;2022-07-03T02:20:35;10.47;;;6.30;;
42282;SDS011;28237;47.954;21.730;2022-07-03T02:23:02;7.70;;;6.43;;
42282;SDS011;28237;47.954;21.730;2022-07-03T02:27:56;6.65;;;6.07;;
42282;SDS011;28237;47.954;21.730;2022-07-03T02:30:24;7.85;;;7.25;;
42282;SDS011;28237;47.954;21.730;2022-07-03T02:32:52;7.18;;;6.43;;
42282;SDS011;28237;47.954;21.730;2022-07-03T02:40:39;6.57;;;6.05;;
42282;SDS011;28237;47.954;21.730;2022-07-03T02:45:43;6.10;;;5.60;;
42282;SDS011;28237;47.954;21.730;2022-07-03T02:48:18;6.25;;;5.75;;
42282;SDS011;28237;47.954;21.730;2022-07-03T02:50:46;6.90;;;5.85;;
42282;SDS011;28237;47.954;21.730;2022-07-03T02:53:26;6.80;;;6.20;;
42282;SDS011;28237;47.954;21.730;2022-07-03T02:55:56;6.55;;;5.95;;
42282;SDS011;28237;47.954;21.730;2022-07-03T03:01:20;6.43;;;5.82;;
42282;SDS011;28237;47.954;21.730;2022-07-03T03:06:23;6.90;;;4.93;;
42282;SDS011;28237;47.954;21.730;2022-07-03T03:08:52;6.60;;;5.40;;
42282;SDS011;28237;47.954;21.730;2022-07-03T03:11:24;6.40;;;5.82;;
42282;SDS011;28237;47.954;21.730;2022-07-03T03:13:54;5.93;;;5.30;;
42282;SDS011;28237;47.954;21.730;2022-07-03T03:16:20;6.63;;;5.38;;
42282;SDS011;28237;47.954;21.730;2022-07-03T03:18:46;5.95;;;5.38;;
42282;SDS011;28237;47.954;21.730;2022-07-03T03:21:13;5.65;;;5.18;;
42282;SDS011;28237;47.954;21.730;2022-07-03T03:23:50;5.90;;;5.40;;
42282;SDS011;28237;47.954;21.730;2022-07-03T03:26:20;5.93;;;5.40;;
42282;SDS011;28237;47.954;21.730;2022-07-03T03:28:46;5.53;;;5.03;;
42282;SDS011;28237;47.954;21.730;2022-07-03T03:31:12;5.30;;;4.90;;
42282;SDS011;28237;47.954;21.730;2022-07-03T03:33:41;6.95;;;5.95;;
42282;SDS011;28237;47.954;21.730;2022-07-03T03:36:09;5.63;;;5.13;;
42282;SDS011;28237;47.954;21.730;2022-07-03T03:38:36;6.43;;;5.82;;
42282;SDS011;28237;47.954;21.730;2022-07-03T03:41:01;5.53;;;5.03;;
42282;SDS011;28237;47.954;21.730;2022-07-03T03:43:26;7.20;;;5.10;;
42282;SDS011;28237;47.954;21.730;2022-07-03T03:45:52;5.38;;;4.85;;
42282;SDS011;28237;47.954;21.730;2022-07-03T03:48:17;5.07;;;4.67;;
42282;SDS011;28237;47.954;21.730;2022-07-03T03:50:42;6.13;;;5.63;;
42282;SDS011;28237;47.954;21.730;2022-07-03T03:53:09;5.88;;;5.38;;
42282;SDS011;28237;47.954;21.730;2022-07-03T03:55:35;5.70;;;5.30;;
42282;SDS011;28237;47.954;21.730;2022-07-03T03:58:00;5.80;;;5.20;;
42282;SDS011;28237;47.954;21.730;2022-07-03T04:00:26;6.82;;;6.22;;
42282;SDS011;28237;47.954;21.730;2022-07-03T04:02:52;5.78;;;5.18;;
42282;SDS011;28237;47.954;21.730;2022-07-03T04:05:17;6.90;;;5.23;;
42282;SDS011;28237;47.954;21.730;2022-07-03T04:07:42;5.23;;;4.83;;
42282;SDS011;28237;47.954;21.730;2022-07-03T04:10:07;6.10;;;5.47;;
42282;SDS011;28237;47.954;21.730;2022-07-03T04:12:33;5.50;;;5.00;;
42282;SDS011;28237;47.954;21.730;2022-07-03T04:14:58;5.00;;;4.60;;
42282;SDS011;28237;47.954;21.730;2022-07-03T04:17:24;4.95;;;4.45;;
42282;SDS011;28237;47.954;21.730;2022-07-03T04:19:49;5.63;;;4.43;;
42282;SDS011;28237;47.954;21.730;2022-07-03T04:22:14;5.33;;;4.83;;
42282;SDS011;28237;47.954;21.730;2022-07-03T04:24:39;6.07;;;4.97;;
42282;SDS011;28237;47.954;21.730;2022-07-03T04:27:05;5.37;;;4.87;;
42282;SDS011;28237;47.954;21.730;2022-07-03T04:29:30;5.75;;;4.50;;
42282;SDS011;28237;47.954;21.730;2022-07-03T04:31:55;4.93;;;4.53;;
42282;SDS011;28237;47.954;21.730;2022-07-03T04:34:20;8.03;;;5.13;;
42282;SDS011;28237;47.954;21.730;2022-07-03T04:36:46;7.43;;;5.20;;
42282;SDS011;28237;47.954;21.730;2022-07-03T04:39:11;5.17;;;4.77;;
42282;SDS011;28237;47.954;21.730;2022-07-03T04:41:36;5.50;;;5.00;;
42282;SDS011;28237;47.954;21.730;2022-07-03T04:44:01;5.67;;;5.17;;
42282;SDS011;28237;47.954;21.730;2022-07-03T04:46:27;5.37;;;4.97;;
42282;SDS011;28237;47.954;21.730;2022-07-03T04:48:52;4.73;;;4.33;;
42282;SDS011;28237;47.954;21.730;2022-07-03T04:51:17;5.10;;;4.70;;
42282;SDS011;28237;47.954;21.730;2022-07-03T04:53:42;5.50;;;5.00;;
42282;SDS011;28237;47.954;21.730;2022-07-03T04:56:08;4.97;;;4.53;;
42282;SDS011;28237;47.954;21.730;2022-07-03T04:58:36;8.52;;;5.00;;
42282;SDS011;28237;47.954;21.730;2022-07-03T05:01:01;5.87;;;4.90;;
42282;SDS011;28237;47.954;21.730;2022-07-03T05:03:26;4.95;;;4.47;;
42282;SDS011;28237;47.954;21.730;2022-07-03T05:05:52;5.45;;;4.90;;
42282;SDS011;28237;47.954;21.730;2022-07-03T05:08:17;5.57;;;5.07;;
42282;SDS011;28237;47.954;21.730;2022-07-03T05:10:45;4.38;;;4.07;;
42282;SDS011;28237;47.954;21.730;2022-07-03T05:13:10;5.90;;;4.93;;
42282;SDS011;28237;47.954;21.730;2022-07-03T05:15:35;5.70;;;5.20;;
42282;SDS011;28237;47.954;21.730;2022-07-03T05:18:00;5.77;;;5.30;;
42282;SDS011;28237;47.954;21.730;2022-07-03T05:20:25;5.33;;;4.90;;
42282;SDS011;28237;47.954;21.730;2022-07-03T05:22:54;5.65;;;5.10;;
42282;SDS011;28237;47.954;21.730;2022-07-03T05:25:20;4.65;;;4.25;;
42282;SDS011;28237;47.954;21.730;2022-07-03T05:27:45;9.17;;;5.50;;
42282;SDS011;28237;47.954;21.730;2022-07-03T05:30:11;5.47;;;4.68;;
42282;SDS011;28237;47.954;21.730;2022-07-03T05:32:36;5.00;;;4.55;;
42282;SDS011;28237;47.954;21.730;2022-07-03T05:35:02;7.30;;;4.88;;
42282;SDS011;28237;47.954;21.730;2022-07-03T05:37:27;4.88;;;4.35;;
42282;SDS011;28237;47.954;21.730;2022-07-03T05:39:52;4.65;;;4.25;;
42282;SDS011;28237;47.954;21.730;2022-07-03T05:42:18;6.20;;;5.70;;
42282;SDS011;28237;47.954;21.730;2022-07-03T05:44:43;6.30;;;5.40;;
42282;SDS011;28237;47.954;21.730;2022-07-03T05:47:08;6.70;;;5.70;;
42282;SDS011;28237;47.954;21.730;2022-07-03T05:49:33;4.78;;;4.38;;
42282;SDS011;28237;47.954;21.730;2022-07-03T05:51:59;5.30;;;4.90;;
42282;SDS011;28237;47.954;21.730;2022-07-03T05:54:24;5.10;;;4.70;;
42282;SDS011;28237;47.954;21.730;2022-07-03T05:56:49;4.47;;;3.97;;
42282;SDS011;28237;47.954;21.730;2022-07-03T05:59:14;6.70;;;4.47;;
42282;SDS011;28237;47.954;21.730;2022-07-03T06:01:40;5.40;;;4.90;;
42282;SDS011;28237;47.954;21.730;2022-07-03T06:04:05;7.73;;;5.30;;
42282;SDS011;28237;47.954;21.730;2022-07-03T06:06:30;4.87;;;4.47;;
42282;SDS011;28237;47.954;21.730;2022-07-03T06:08:55;5.50;;;4.27;;
42282;SDS011;28237;47.954;21.730;2022-07-03T06:11:21;5.00;;;4.60;;
42282;SDS011;28237;47.954;21.730;2022-07-03T06:13:46;8.45;;;4.15;;
42282;SDS011;28237;47.954;21.730;2022-07-03T06:16:11;5.22;;;4.72;;
42282;SDS011;28237;47.954;21.730;2022-07-03T06:18:37;3.80;;;3.60;;
42282;SDS011;28237;47.954;21.730;2022-07-03T06:21:02;6.00;;;4.10;;
42282;SDS011;28237;47.954;21.730;2022-07-03T06:23:27;7.53;;;6.72;;
42282;SDS011;28237;47.954;21.730;2022-07-03T06:25:52;4.83;;;4.43;;
42282;SDS011;28237;47.954;21.730;2022-07-03T06:28:18;5.23;;;4.73;;
42282;SDS011;28237;47.954;21.730;2022-07-03T06:30:43;4.77;;;4.33;;
42282;SDS011;28237;47.954;21.730;2022-07-03T06:33:08;5.10;;;4.60;;
42282;SDS011;28237;47.954;21.730;2022-07-03T06:35:33;4.37;;;3.97;;
42282;SDS011;28237;47.954;21.730;2022-07-03T06:38:02;6.03;;;4.50;;
42282;SDS011;28237;47.954;21.730;2022-07-03T06:40:28;5.85;;;5.18;;
42282;SDS011;28237;47.954;21.730;2022-07-03T06:42:53;4.50;;;4.18;;
42282;SDS011;28237;47.954;21.730;2022-07-03T06:45:18;4.28;;;3.97;;
42282;SDS011;28237;47.954;21.730;2022-07-03T06:47:43;4.40;;;4.07;;
42282;SDS011;28237;47.954;21.730;2022-07-03T06:50:09;5.33;;;4.83;;
42282;SDS011;28237;47.954;21.730;2022-07-03T06:52:34;4.82;;;4.25;;
42282;SDS011;28237;47.954;21.730;2022-07-03T06:54:59;4.75;;;4.35;;
42282;SDS011;28237;47.954;21.730;2022-07-03T06:57:25;4.70;;;4.30;;
42282;SDS011;28237;47.954;21.730;2022-07-03T06:59:50;5.70;;;5.00;;
42282;SDS011;28237;47.954;21.730;2022-07-03T07:02:15;6.27;;;4.37;;
42282;SDS011;28237;47.954;21.730;2022-07-03T07:04:40;5.13;;;4.70;;
42282;SDS011;28237;47.954;21.730;2022-07-03T07:07:06;7.23;;;5.60;;
42282;SDS011;28237;47.954;21.730;2022-07-03T07:09:31;5.23;;;4.70;;
42282;SDS011;28237;47.954;21.730;2022-07-03T07:11:56;6.55;;;4.63;;
42282;SDS011;28237;47.954;21.730;2022-07-03T07:14:21;4.53;;;4.13;;
42282;SDS011;28237;47.954;21.730;2022-07-03T07:16:47;5.20;;;4.80;;
42282;SDS011;28237;47.954;21.730;2022-07-03T07:19:12;5.10;;;4.63;;
42282;SDS011;28237;47.954;21.730;2022-07-03T07:21:37;5.70;;;5.20;;
42282;SDS011;28237;47.954;21.730;2022-07-03T07:24:03;4.50;;;4.20;;
42282;SDS011;28237;47.954;21.730;2022-07-03T07:26:28;6.35;;;5.78;;
42282;SDS011;28237;47.954;21.730;2022-07-03T07:28:53;5.57;;;4.80;;
42282;SDS011;28237;47.954;21.730;2022-07-03T07:31:18;4.40;;;4.10;;
42282;SDS011;28237;47.954;21.730;2022-07-03T07:33:44;5.93;;;4.63;;
42282;SDS011;28237;47.954;21.730;2022-07-03T07:36:09;4.83;;;4.43;;
42282;SDS011;28237;47.954;21.730;2022-07-03T07:38:34;5.80;;;5.20;;
42282;SDS011;28237;47.954;21.730;2022-07-03T07:40:59;5.20;;;4.70;;
42282;SDS011;28237;47.954;21.730;2022-07-03T07:43:25;4.93;;;4.47;;
42282;SDS011;28237;47.954;21.730;2022-07-03T07:45:50;7.40;;;4.67;;
42282;SDS011;28237;47.954;21.730;2022-07-03T07:48:15;5.25;;;4.65;;
42282;SDS011;28237;47.954;21.730;2022-07-03T07:50:43;5.57;;;5.07;;
42282;SDS011;28237;47.954;21.730;2022-07-03T07:53:08;5.07;;;4.67;;
42282;SDS011;28237;47.954;21.730;2022-07-03T07:55:33;4.60;;;4.30;;
42282;SDS011;28237;47.954;21.730;2022-07-03T07:57:58;6.60;;;4.87;;
42282;SDS011;28237;47.954;21.730;2022-07-03T08:00:24;5.25;;;4.05;;
42282;SDS011;28237;47.954;21.730;2022-07-03T08:02:49;4.30;;;3.90;;
42282;SDS011;28237;47.954;21.730;2022-07-03T08:05:33;7.60;;;5.13;;
42282;SDS011;28237;47.954;21.730;2022-07-03T08:08:12;4.90;;;4.50;;
42282;SDS011;28237;47.954;21.730;2022-07-03T08:10:38;4.43;;;4.13;;
42282;SDS011;28237;47.954;21.730;2022-07-03T08:13:04;5.15;;;4.75;;
42282;SDS011;28237;47.954;21.730;2022-07-03T08:15:29;5.30;;;4.80;;
42282;SDS011;28237;47.954;21.730;2022-07-03T08:17:54;4.68;;;4.38;;
42282;SDS011;28237;47.954;21.730;2022-07-03T08:20:20;4.23;;;3.93;;
42282;SDS011;28237;47.954;21.730;2022-07-03T08:22:45;5.17;;;4.73;;
42282;SDS011;28237;47.954;21.730;2022-07-03T08:25:10;6.47;;;4.63;;
42282;SDS011;28237;47.954;21.730;2022-07-03T08:27:35;5.27;;;4.87;;
42282;SDS011;28237;47.954;21.730;2022-07-03T08:30:01;5.65;;;4.32;;
42282;SDS011;28237;47.954;21.730;2022-07-03T08:32:26;5.03;;;4.63;;
42282;SDS011;28237;47.954;21.730;2022-07-03T08:34:51;6.57;;;5.20;;
42282;SDS011;28237;47.954;21.730;2022-07-03T08:37:16;5.00;;;4.40;;
42282;SDS011;28237;47.954;21.730;2022-07-03T08:39:42;5.00;;;4.60;;
42282;SDS011;28237;47.954;21.730;2022-07-03T08:42:07;4.67;;;4.23;;
42282;SDS011;28237;47.954;21.730;2022-07-03T08:44:35;5.00;;;4.60;;
42282;SDS011;28237;47.954;21.730;2022-07-03T08:47:01;5.18;;;4.15;;
42282;SDS011;28237;47.954;21.730;2022-07-03T08:49:27;4.90;;;4.40;;
42282;SDS011;28237;47.954;21.730;2022-07-03T08:51:53;4.80;;;4.43;;
42282;SDS011;28237;47.954;21.730;2022-07-03T08:54:19;4.32;;;3.88;;
42282;SDS011;28237;47.954;21.730;2022-07-03T08:56:45;6.07;;;4.20;;
42282;SDS011;28237;47.954;21.730;2022-07-03T08:59:12;4.38;;;4.07;;
42282;SDS011;28237;47.954;21.730;2022-07-03T09:01:37;4.70;;;4.20;;
42282;SDS011;28237;47.954;21.730;2022-07-03T09:04:08;9.52;;;8.52;;
42282;SDS011;28237;47.954;21.730;2022-07-03T09:06:33;5.90;;;4.40;;
42282;SDS011;28237;47.954;21.730;2022-07-03T09:09:00;5.15;;;4.07;;
42282;SDS011;28237;47.954;21.730;2022-07-03T09:11:25;4.00;;;3.70;;
42282;SDS011;28237;47.954;21.730;2022-07-03T09:13:50;7.57;;;4.50;;
42282;SDS011;28237;47.954;21.730;2022-07-03T09:16:16;6.50;;;4.00;;
42282;SDS011;28237;47.954;21.730;2022-07-03T09:18:42;5.63;;;4.40;;
42282;SDS011;28237;47.954;21.730;2022-07-03T09:21:08;4.22;;;3.85;;
42282;SDS011;28237;47.954;21.730;2022-07-03T09:23:40;4.53;;;3.97;;
42282;SDS011;28237;47.954;21.730;2022-07-03T09:26:06;4.25;;;3.88;;
42282;SDS011;28237;47.954;21.730;2022-07-03T09:28:47;13.07;;;4.18;;
42282;SDS011;28237;47.954;21.730;2022-07-03T09:31:16;11.48;;;4.30;;
42282;SDS011;28237;47.954;21.730;2022-07-03T09:36:16;4.55;;;3.72;;
42282;SDS011;28237;47.954;21.730;2022-07-03T09:38:44;3.83;;;3.50;;
42282;SDS011;28237;47.954;21.730;2022-07-03T09:41:10;4.03;;;3.63;;
42282;SDS011;28237;47.954;21.730;2022-07-03T09:43:35;4.07;;;3.77;;
42282;SDS011;28237;47.954;21.730;2022-07-03T09:46:05;3.90;;;3.60;;
42282;SDS011;28237;47.954;21.730;2022-07-03T09:48:32;6.57;;;3.70;;
42282;SDS011;28237;47.954;21.730;2022-07-03T09:51:17;4.50;;;3.45;;
42282;SDS011;28237;47.954;21.730;2022-07-03T09:53:45;4.38;;;4.00;;
42282;SDS011;28237;47.954;21.730;2022-07-03T09:56:10;3.47;;;3.17;;
42282;SDS011;28237;47.954;21.730;2022-07-03T09:58:36;8.40;;;3.83;;
42282;SDS011;28237;47.954;21.730;2022-07-03T10:01:17;3.63;;;3.33;;
42282;SDS011;28237;47.954;21.730;2022-07-03T10:03:43;4.82;;;3.20;;
42282;SDS011;28237;47.954;21.730;2022-07-03T10:06:08;7.17;;;3.27;;
42282;SDS011;28237;47.954;21.730;2022-07-03T10:08:33;3.40;;;3.20;;
42282;SDS011;28237;47.954;21.730;2022-07-03T10:10:58;5.77;;;3.23;;
42282;SDS011;28237;47.954;21.730;2022-07-03T10:13:24;9.18;;;3.33;;
42282;SDS011;28237;47.954;21.730;2022-07-03T10:15:49;9.55;;;3.47;;
42282;SDS011;28237;47.954;21.730;2022-07-03T10:18:16;5.35;;;3.22;;
42282;SDS011;28237;47.954;21.730;2022-07-03T10:20:47;4.93;;;3.38;;
42282;SDS011;28237;47.954;21.730;2022-07-03T10:23:14;4.07;;;3.67;;
42282;SDS011;28237;47.954;21.730;2022-07-03T10:25:40;4.88;;;3.25;;
42282;SDS011;28237;47.954;21.730;2022-07-03T10:28:05;3.35;;;3.08;;
42282;SDS011;28237;47.954;21.730;2022-07-03T10:30:31;4.05;;;3.15;;
42282;SDS011;28237;47.954;21.730;2022-07-03T10:32:56;3.40;;;3.10;;
42282;SDS011;28237;47.954;21.730;2022-07-03T10:35:29;4.80;;;3.00;;
42282;SDS011;28237;47.954;21.730;2022-07-03T10:43:18;7.63;;;2.92;;
42282;SDS011;28237;47.954;21.730;2022-07-03T10:46:08;4.15;;;3.45;;
42282;SDS011;28237;47.954;21.730;2022-07-03T10:48:50;4.32;;;3.00;;
42282;SDS011;28237;47.954;21.730;2022-07-03T10:51:15;3.35;;;2.80;;
42282;SDS011;28237;47.954;21.730;2022-07-03T10:53:40;3.60;;;2.80;;
42282;SDS011;28237;47.954;21.730;2022-07-03T10:56:06;3.43;;;2.47;;
42282;SDS011;28237;47.954;21.730;2022-07-03T10:58:31;2.97;;;2.60;;
42282;SDS011;28237;47.954;21.730;2022-07-03T11:00:56;3.10;;;2.60;;
42282;SDS011;28237;47.954;21.730;2022-07-03T11:06:07;3.22;;;2.97;;
42282;SDS011;28237;47.954;21.730;2022-07-03T11:08:32;2.97;;;2.37;;
42282;SDS011;28237;47.954;21.730;2022-07-03T11:11:33;2.75;;;2.40;;
42282;SDS011;28237;47.954;21.730;2022-07-03T11:14:18;4.15;;;3.28;;
42282;SDS011;28237;47.954;21.730;2022-07-03T11:16:45;3.85;;;2.65;;
42282;SDS011;28237;47.954;21.730;2022-07-03T11:19:10;3.30;;;3.00;;
42282;SDS011;28237;47.954;21.730;2022-07-03T11:21:36;3.17;;;2.93;;
42282;SDS011;28237;47.954;21.730;2022-07-03T11:26:28;2.73;;;2.53;;
42282;SDS011;28237;47.954;21.730;2022-07-03T11:28:53;3.07;;;2.53;;
42282;SDS011;28237;47.954;21.730;2022-07-03T11:31:20;2.75;;;2.40;;
42282;SDS011;28237;47.954;21.730;2022-07-03T11:41:21;2.75;;;2.42;;
42282;SDS011;28237;47.954;21.730;2022-07-03T11:43:47;2.35;;;2.15;;
42282;SDS011;28237;47.954;21.730;2022-07-03T11:46:16;4.40;;;2.72;;
42282;SDS011;28237;47.954;21.730;2022-07-03T11:48:41;2.38;;;2.28;;
42282;SDS011;28237;47.954;21.730;2022-07-03T11:51:07;4.00;;;2.83;;
42282;SDS011;28237;47.954;21.730;2022-07-03T11:53:33;5.13;;;2.27;;
42282;SDS011;28237;47.954;21.730;2022-07-03T11:58:25;3.10;;;2.40;;
42282;SDS011;28237;47.954;21.730;2022-07-03T12:00:50;2.85;;;2.40;;
42282;SDS011;28237;47.954;21.730;2022-07-03T12:03:23;4.60;;;2.40;;
42282;SDS011;28237;47.954;21.730;2022-07-03T12:05:58;3.78;;;3.03;;
42282;SDS011;28237;47.954;21.730;2022-07-03T12:08:27;4.55;;;2.50;;
42282;SDS011;28237;47.954;21.730;2022-07-03T12:10:57;2.72;;;2.50;;
42282;SDS011;28237;47.954;21.730;2022-07-03T12:13:22;2.67;;;2.28;;
42282;SDS011;28237;47.954;21.730;2022-07-03T12:15:48;5.45;;;2.28;;
42282;SDS011;28237;47.954;21.730;2022-07-03T12:18:14;2.55;;;2.10;;
42282;SDS011;28237;47.954;21.730;2022-07-03T12:20:39;4.22;;;3.13;;
42282;SDS011;28237;47.954;21.730;2022-07-03T12:23:05;2.97;;;2.73;;
42282;SDS011;28237;47.954;21.730;2022-07-03T12:25:30;3.43;;;2.23;;
42282;SDS011;28237;47.954;21.730;2022-07-03T12:27:55;2.83;;;2.45;;
42282;SDS011;28237;47.954;21.730;2022-07-03T12:30:21;2.50;;;2.30;;
42282;SDS011;28237;47.954;21.730;2022-07-03T12:32:52;4.55;;;2.28;;
42282;SDS011;28237;47.954;21.730;2022-07-03T12:35:21;3.35;;;2.28;;
42282;SDS011;28237;47.954;21.730;2022-07-03T12:37:46;3.83;;;2.17;;
42282;SDS011;28237;47.954;21.730;2022-07-03T12:40:12;2.38;;;2.13;;
42282;SDS011;28237;47.954;21.730;2022-07-03T12:42:45;6.18;;;1.70;;
42282;SDS011;28237;47.954;21.730;2022-07-03T12:45:11;6.28;;;2.13;;
42282;SDS011;28237;47.954;21.730;2022-07-03T12:47:37;3.67;;;2.08;;
42282;SDS011;28237;47.954;21.730;2022-07-03T12:50:06;2.30;;;2.10;;
42282;SDS011;28237;47.954;21.730;2022-07-03T12:52:32;5.20;;;2.53;;
42282;SDS011;28237;47.954;21.730;2022-07-03T12:54:58;6.40;;;2.00;;
42282;SDS011;28237;47.954;21.730;2022-07-03T12:57:24;1.98;;;1.60;;
42282;SDS011;28237;47.954;21.730;2022-07-03T13:02:37;2.47;;;1.95;;
42282;SDS011;28237;47.954;21.730;2022-07-03T13:05:24;4.47;;;1.90;;
42282;SDS011;28237;47.954;21.730;2022-07-03T13:07:49;4.78;;;2.08;;
42282;SDS011;28237;47.954;21.730;2022-07-03T13:10:15;3.60;;;2.25;;
42282;SDS011;28237;47.954;21.730;2022-07-03T13:15:15;3.28;;;2.00;;
42282;SDS011;28237;47.954;21.730;2022-07-03T13:20:18;2.97;;;2.13;;
42282;SDS011;28237;47.954;21.730;2022-07-03T13:22:43;1.70;;;1.60;;
42282;SDS011;28237;47.954;21.730;2022-07-03T13:25:08;1.97;;;1.20;;
42282;SDS011;28237;47.954;21.730;2022-07-03T13:27:34;3.17;;;1.77;;
42282;SDS011;28237;47.954;21.730;2022-07-03T13:29:59;3.23;;;2.10;;
42282;SDS011;28237;47.954;21.730;2022-07-03T13:32:25;2.60;;;1.77;;
42282;SDS011;28237;47.954;21.730;2022-07-03T13:34:50;2.85;;;2.13;;
42282;SDS011;28237;47.954;21.730;2022-07-03T13:37:15;3.23;;;1.73;;
42282;SDS011;28237;47.954;21.730;2022-07-03T13:39:41;3.27;;;1.80;;
42282;SDS011;28237;47.954;21.730;2022-07-03T13:42:06;3.50;;;1.60;;
42282;SDS011;28237;47.954;21.730;2022-07-03T13:44:35;2.90;;;1.92;;
42282;SDS011;28237;47.954;21.730;2022-07-03T13:47:00;3.23;;;1.63;;
42282;SDS011;28237;47.954;21.730;2022-07-03T13:49:26;4.67;;;1.73;;
42282;SDS011;28237;47.954;21.730;2022-07-03T13:51:51;3.07;;;1.70;;
42282;SDS011;28237;47.954;21.730;2022-07-03T13:54:16;2.20;;;1.60;;
42282;SDS011;28237;47.954;21.730;2022-07-03T13:56:41;2.13;;;1.50;;
42282;SDS011;28237;47.954;21.730;2022-07-03T13:59:07;2.20;;;1.60;;
42282;SDS011;28237;47.954;21.730;2022-07-03T14:01:32;2.13;;;1.63;;
42282;SDS011;28237;47.954;21.730;2022-07-03T14:03:57;3.63;;;1.50;;
42282;SDS011;28237;47.954;21.730;2022-07-03T14:06:23;2.50;;;1.73;;
42282;SDS011;28237;47.954;21.730;2022-07-03T14:08:48;2.15;;;1.50;;
42282;SDS011;28237;47.954;21.730;2022-07-03T14:11:13;2.87;;;1.63;;
42282;SDS011;28237;47.954;21.730;2022-07-03T14:13:40;2.58;;;1.60;;
42282;SDS011;28237;47.954;21.730;2022-07-03T14:16:05;2.73;;;1.37;;
42282;SDS011;28237;47.954;21.730;2022-07-03T14:18:30;3.40;;;1.60;;
42282;SDS011;28237;47.954;21.730;2022-07-03T14:20:55;2.87;;;1.63;;
42282;SDS011;28237;47.954;21.730;2022-07-03T14:23:21;2.97;;;1.67;;
42282;SDS011;28237;47.954;21.730;2022-07-03T14:25:46;3.43;;;1.57;;
42282;SDS011;28237;47.954;21.730;2022-07-03T14:28:11;2.63;;;1.77;;
42282;SDS011;28237;47.954;21.730;2022-07-03T14:33:40;6.05;;;2.13;;
42282;SDS011;28237;47.954;21.730;2022-07-03T14:36:08;2.75;;;1.67;;
42282;SDS011;28237;47.954;21.730;2022-07-03T14:38:33;5.00;;;1.83;;
42282;SDS011;28237;47.954;21.730;2022-07-03T14:40:59;3.93;;;1.30;;
42282;SDS011;28237;47.954;21.730;2022-07-03T14:43:24;3.90;;;1.20;;
42282;SDS011;28237;47.954;21.730;2022-07-03T14:45:49;3.83;;;2.10;;
42282;SDS011;28237;47.954;21.730;2022-07-03T14:48:14;2.50;;;1.57;;
42282;SDS011;28237;47.954;21.730;2022-07-03T14:50:40;5.83;;;1.60;;
42282;SDS011;28237;47.954;21.730;2022-07-03T14:53:06;3.77;;;1.60;;
42282;SDS011;28237;47.954;21.730;2022-07-03T14:55:35;2.47;;;1.50;;
42282;SDS011;28237;47.954;21.730;2022-07-03T15:00:26;5.40;;;1.17;;
42282;SDS011;28237;47.954;21.730;2022-07-03T15:03:15;2.20;;;0.85;;
42282;SDS011;28237;47.954;21.730;2022-07-03T15:05:41;2.67;;;0.95;;
42282;SDS011;28237;47.954;21.730;2022-07-03T15:08:25;3.03;;;1.17;;
42282;SDS011;28237;47.954;21.730;2022-07-03T15:10:54;4.00;;;1.00;;
42282;SDS011;28237;47.954;21.730;2022-07-03T15:13:20;2.80;;;0.93;;
42282;SDS011;28237;47.954;21.730;2022-07-03T15:15:46;2.40;;;1.20;;
42282;SDS011;28237;47.954;21.730;2022-07-03T15:18:12;6.65;;;2.53;;
42282;SDS011;28237;47.954;21.730;2022-07-03T15:20:38;1.58;;;1.35;;
42282;SDS011;28237;47.954;21.730;2022-07-03T15:23:04;2.67;;;1.10;;
42282;SDS011;28237;47.954;21.730;2022-07-03T15:25:30;1.20;;;0.90;;
42282;SDS011;28237;47.954;21.730;2022-07-03T15:27:56;1.40;;;0.88;;
42282;SDS011;28237;47.954;21.730;2022-07-03T15:30:22;1.65;;;0.77;;
42282;SDS011;28237;47.954;21.730;2022-07-03T15:32:48;2.15;;;1.33;;
42282;SDS011;28237;47.954;21.730;2022-07-03T15:35:14;3.50;;;1.38;;
42282;SDS011;28237;47.954;21.730;2022-07-03T15:40:28;2.08;;;1.30;;
42282;SDS011;28237;47.954;21.730;2022-07-03T15:43:04;4.72;;;1.17;;
42282;SDS011;28237;47.954;21.730;2022-07-03T15:48:05;1.63;;;1.23;;